Terminal Aerodrome Forecast
Issued by NWS Huntsville, AL

Home | Current Version | Previous Version | Text Only | Print | Product List | Glossary On
Versions: 1 2 3 4 5 6 7 8 9 10 11 12 13 14 15 16 17 18 19 20 21 22 23 24 25 26 27 28 29 30 31 32 33 34 35 36
000
FTUS44 KHUN 221329 AAA
TAFMSL
TAF AMD
KMSL 221329Z 2213/2312 13005KT P6SM BKN090
     FM221600 15005KT P6SM VCSH BKN050
     FM222000 15005KT 5SM -SHRA BR BKN040
      TEMPO 2220/2224 5SM -TSRA BR BKN025CB
     FM230000 15005KT P6SM BKN250=

USA.gov is the U.S. government's official web portal to all federal, state and local government web resources and services.